createdAt,value
2023-05-17T00:00:02.905Z,1.42
2023-05-17T00:02:34.409Z,1.27
2023-05-17T00:05:19.010Z,1.20
2023-05-17T00:07:47.331Z,1.10
2023-05-17T00:10:14.946Z,1.27
2023-05-17T00:12:49.274Z,1.20
2023-05-17T00:15:16.973Z,1.30
2023-05-17T00:17:46.684Z,1.30
2023-05-17T00:20:16.592Z,1.20
2023-05-17T00:22:47.337Z,1.40
2023-05-17T00:25:15.753Z,1.13
2023-05-17T00:27:43.280Z,1.23
2023-05-17T00:30:11.927Z,1.25
2023-05-17T00:32:41.768Z,1.20
2023-05-17T00:35:10.685Z,1.00
2023-05-17T00:37:38.306Z,1.30
2023-05-17T00:40:06.465Z,1.30
2023-05-17T00:42:33.774Z,1.42
2023-05-17T00:45:01.057Z,1.00
2023-05-17T00:47:28.696Z,1.10
2023-05-17T00:49:57.238Z,1.30
2023-05-17T00:52:24.581Z,1.20
2023-05-17T00:54:52.521Z,1.30
2023-05-17T00:57:20.104Z,1.27
2023-05-17T00:59:47.873Z,1.50
2023-05-17T01:02:15.166Z,1.20
2023-05-17T01:04:42.742Z,1.15
2023-05-17T01:07:12.756Z,1.25
2023-05-17T01:09:42.714Z,1.10
2023-05-17T01:12:32.649Z,1.17
2023-05-17T01:15:15.570Z,1.08
2023-05-17T01:17:57.483Z,1.20
2023-05-17T01:20:37.924Z,1.30
2023-05-17T01:23:23.516Z,1.30
2023-05-17T01:26:21.751Z,1.30
2023-05-17T01:28:54.954Z,0.88
2023-05-17T01:31:25.661Z,1.20
2023-05-17T01:33:52.985Z,1.10
2023-05-17T01:36:22.763Z,1.30
2023-05-17T01:38:55.501Z,1.15
2023-05-17T01:41:42.415Z,1.17
2023-05-17T01:44:48.236Z,1.42
2023-05-17T01:47:33.357Z,1.20
2023-05-17T01:50:03.198Z,1.10
2023-05-17T01:52:37.873Z,1.00
2023-05-17T01:55:07.165Z,1.30
2023-05-17T01:57:39.493Z,1.30
2023-05-17T02:00:11.750Z,1.10
2023-05-17T02:02:46.566Z,1.30
2023-05-17T02:05:14.348Z,1.10
2023-05-17T02:07:41.786Z,1.20
2023-05-17T02:10:14.030Z,1.40
2023-05-17T02:12:44.600Z,1.27
2023-05-17T02:15:16.246Z,1.08
2023-05-17T02:17:46.528Z,1.13
2023-05-17T02:20:17.886Z,1.13
2023-05-17T02:22:50.373Z,1.23
2023-05-17T02:25:18.098Z,1.08
2023-05-17T02:27:45.441Z,1.08
2023-05-17T02:30:15.656Z,1.23
2023-05-17T02:32:44.640Z,1.35
2023-05-17T02:35:14.780Z,1.05
2023-05-17T02:37:42.288Z,1.20
2023-05-17T02:40:10.560Z,1.15
2023-05-17T02:42:38.268Z,0.95
2023-05-17T02:45:08.376Z,1.23
2023-05-17T02:47:36.170Z,1.10
2023-05-17T02:50:03.919Z,1.05
2023-05-17T02:52:32.107Z,1.20
2023-05-17T02:54:59.708Z,1.10
2023-05-17T02:57:29.338Z,1.00
2023-05-17T03:00:00.309Z,1.10
2023-05-17T03:02:31.284Z,1.08
2023-05-17T03:05:01.059Z,1.15
2023-05-17T03:07:36.069Z,1.23
2023-05-17T03:10:04.803Z,1.27
2023-05-17T03:12:37.802Z,1.20
2023-05-17T03:15:07.882Z,1.10
2023-05-17T03:17:35.229Z,1.10
2023-05-17T03:20:07.918Z,1.08
2023-05-17T03:22:38.502Z,1.23
2023-05-17T03:25:06.803Z,1.08
2023-05-17T03:27:34.649Z,1.13
2023-05-17T03:30:02.396Z,1.02
2023-05-17T03:32:33.904Z,1.40
2023-05-17T03:35:01.304Z,1.20
2023-05-17T03:37:29.309Z,1.38
2023-05-17T03:39:59.143Z,1.00
2023-05-17T03:42:27.219Z,1.10
2023-05-17T03:44:54.833Z,0.90
2023-05-17T03:47:25.471Z,1.38
2023-05-17T03:49:52.845Z,1.23
2023-05-17T03:52:20.706Z,1.27
2023-05-17T03:54:48.891Z,1.13
2023-05-17T03:57:17.440Z,1.17
2023-05-17T03:59:45.911Z,1.02
2023-05-17T04:02:16.137Z,1.40
2023-05-17T04:04:53.273Z,1.17
2023-05-17T04:07:23.851Z,1.42
2023-05-17T04:09:52.025Z,1.50
2023-05-17T04:12:19.214Z,1.40
2023-05-17T04:14:49.428Z,1.30
2023-05-17T04:17:17.066Z,2.05
2023-05-17T04:19:46.406Z,1.67
2023-05-17T04:22:14.746Z,1.50
2023-05-17T04:24:42.826Z,1.58
2023-05-17T04:27:10.823Z,1.50
2023-05-17T04:29:38.511Z,1.55
2023-05-17T04:32:06.696Z,1.60
2023-05-17T04:34:37.424Z,1.35
2023-05-17T04:37:06.072Z,1.50
2023-05-17T04:39:56.521Z,1.30
2023-05-17T04:42:52.666Z,1.50
2023-05-17T04:45:45.158Z,1.60
2023-05-17T04:48:22.597Z,1.35
2023-05-17T04:50:50.244Z,1.30
2023-05-17T04:53:20.440Z,1.50
2023-05-17T04:55:49.772Z,1.50
2023-05-17T04:58:18.519Z,1.67
2023-05-17T05:00:52.088Z,1.27
2023-05-17T05:03:22.261Z,1.60
2023-05-17T05:05:52.805Z,1.13
2023-05-17T05:08:21.289Z,1.60
2023-05-17T05:10:51.506Z,1.50
2023-05-17T05:13:20.033Z,1.52
2023-05-17T05:15:49.676Z,1.30
2023-05-17T05:18:17.026Z,1.60
2023-05-17T05:20:46.571Z,1.50
2023-05-17T05:23:14.361Z,1.40
2023-05-17T05:25:43.764Z,1.50
2023-05-17T05:28:12.129Z,1.55
2023-05-17T05:30:42.907Z,1.65
2023-05-17T05:33:11.314Z,1.45
2023-05-17T05:35:39.027Z,1.60
2023-05-17T05:38:09.987Z,1.33
2023-05-17T05:40:37.536Z,1.60
2023-05-17T05:43:05.064Z,1.65
2023-05-17T05:45:32.741Z,1.50
2023-05-17T05:48:04.357Z,1.50
2023-05-17T05:50:31.933Z,1.75
2023-05-17T05:53:17.135Z,1.45
2023-05-17T05:55:52.116Z,1.48
2023-05-17T05:58:20.437Z,1.65
2023-05-17T06:00:47.944Z,1.58
2023-05-17T06:03:16.134Z,1.70
2023-05-17T06:05:43.644Z,2.05
2023-05-17T06:08:16.279Z,1.23
2023-05-17T06:10:43.649Z,1.58
2023-05-17T06:13:13.347Z,1.48
2023-05-17T06:15:43.075Z,1.47
2023-05-17T06:18:10.507Z,1.48
2023-05-17T06:20:38.024Z,1.60
2023-05-17T06:23:05.796Z,1.40
2023-05-17T06:25:33.385Z,1.27
2023-05-17T06:28:02.887Z,1.40
2023-05-17T06:30:31.093Z,1.60
2023-05-17T06:32:58.720Z,1.30
2023-05-17T06:35:37.483Z,1.90
2023-05-17T06:38:11.755Z,1.50
2023-05-17T06:40:39.051Z,1.60
2023-05-17T06:43:06.300Z,1.52
2023-05-17T06:45:33.628Z,1.70
2023-05-17T06:48:01.003Z,1.73
2023-05-17T06:50:29.352Z,1.40
2023-05-17T06:52:56.851Z,1.70
2023-05-17T06:55:24.139Z,1.60
2023-05-17T06:57:51.564Z,1.73
2023-05-17T07:00:19.394Z,1.60
2023-05-17T07:02:46.724Z,1.50
2023-05-17T07:05:14.142Z,1.90
2023-05-17T07:07:43.689Z,2.00
2023-05-17T07:10:10.972Z,1.83
2023-05-17T07:12:40.551Z,1.52
2023-05-17T07:15:08.259Z,1.38
2023-05-17T07:17:37.584Z,1.67
2023-05-17T07:20:07.766Z,1.40
2023-05-17T07:22:36.669Z,1.73
2023-05-17T07:25:05.006Z,1.63
2023-05-17T07:27:32.428Z,1.85
2023-05-17T07:30:00.375Z,1.90
2023-05-17T07:32:27.695Z,1.55
2023-05-17T07:34:54.965Z,1.95
2023-05-17T07:37:22.140Z,1.60
2023-05-17T07:39:49.387Z,1.90
2023-05-17T07:42:18.825Z,1.80
2023-05-17T07:44:48.622Z,1.95
2023-05-17T07:47:16.377Z,1.52
2023-05-17T07:49:43.810Z,1.90
2023-05-17T07:52:11.275Z,1.80
2023-05-17T07:54:41.796Z,2.08
2023-05-17T07:57:09.105Z,1.80
2023-05-17T07:59:36.525Z,2.15
2023-05-17T08:02:03.916Z,2.08
2023-05-17T08:04:34.489Z,1.70
2023-05-17T08:07:02.584Z,1.73
2023-05-17T08:09:29.845Z,1.80
2023-05-17T08:11:59.742Z,1.80
2023-05-17T08:14:29.448Z,1.60
2023-05-17T08:16:56.708Z,1.77
2023-05-17T08:19:27.599Z,2.10
2023-05-17T08:21:54.937Z,2.10
2023-05-17T08:24:22.261Z,2.10
2023-05-17T08:26:49.531Z,1.95
2023-05-17T08:29:17.134Z,2.13
2023-05-17T08:31:45.596Z,2.00
2023-05-17T08:34:15.350Z,2.15
2023-05-17T08:36:45.799Z,2.10
2023-05-17T08:39:13.003Z,2.35
2023-05-17T08:41:43.418Z,1.98
2023-05-17T08:44:11.360Z,2.03
2023-05-17T08:46:41.558Z,1.83
2023-05-17T08:49:12.863Z,2.25
2023-05-17T08:51:42.210Z,2.05
2023-05-17T08:54:12.024Z,1.80
2023-05-17T08:56:42.218Z,2.53
2023-05-17T08:59:13.590Z,2.30
2023-05-17T09:01:47.819Z,2.10
2023-05-17T09:04:16.989Z,2.22
2023-05-17T09:06:44.809Z,2.33
2023-05-17T09:09:13.794Z,2.00
2023-05-17T09:11:41.813Z,2.00
2023-05-17T09:14:09.111Z,2.13
2023-05-17T09:16:38.667Z,2.13
2023-05-17T09:19:10.762Z,2.33
2023-05-17T09:21:40.775Z,2.30
2023-05-17T09:24:08.796Z,2.20
2023-05-17T09:26:40.323Z,2.22
2023-05-17T09:29:16.123Z,2.20
2023-05-17T09:31:44.530Z,2.13
2023-05-17T09:34:18.872Z,2.60
2023-05-17T09:36:48.280Z,2.47
2023-05-17T09:39:15.713Z,2.40
2023-05-17T09:41:45.753Z,2.50
2023-05-17T09:48:32.801Z,2.50
2023-05-17T09:51:00.862Z,2.58
2023-05-17T09:53:30.926Z,2.88
2023-05-17T09:56:00.381Z,2.70
2023-05-17T09:58:29.099Z,3.13
2023-05-17T10:01:02.077Z,2.90
2023-05-17T10:06:05.434Z,3.63
2023-05-17T10:08:33.552Z,3.33
2023-05-17T10:11:10.456Z,3.28
2023-05-17T10:13:44.185Z,3.63
2023-05-17T10:16:13.055Z,3.90
2023-05-17T10:18:40.878Z,4.15
2023-05-17T10:21:10.687Z,4.35
2023-05-17T10:23:39.596Z,4.53
2023-05-17T10:26:10.518Z,4.03
2023-05-17T10:28:37.842Z,4.35
2023-05-17T10:31:05.529Z,4.03
2023-05-17T10:33:33.299Z,3.55
2023-05-17T10:36:02.559Z,3.55
2023-05-17T10:38:41.600Z,3.53
2023-05-17T10:41:16.231Z,3.97
2023-05-17T10:43:45.098Z,3.17
2023-05-17T10:46:22.784Z,2.80
2023-05-17T10:48:55.135Z,2.70
2023-05-17T10:51:24.681Z,3.05
2023-05-17T10:54:18.509Z,2.92
2023-05-17T10:56:51.778Z,3.08
2023-05-17T10:59:23.336Z,3.03
2023-05-17T11:02:00.834Z,2.60
2023-05-17T11:04:36.799Z,2.40
2023-05-17T11:07:23.924Z,2.65
2023-05-17T11:10:06.337Z,2.92
2023-05-17T11:12:37.666Z,2.93
2023-05-17T11:15:08.534Z,2.65
2023-05-17T11:17:37.220Z,2.63
2023-05-17T11:20:31.416Z,3.05
2023-05-17T11:23:07.083Z,2.72
2023-05-17T11:25:36.903Z,3.13
2023-05-17T11:28:20.316Z,2.90
2023-05-17T11:30:56.895Z,2.85
2023-05-17T11:33:39.252Z,2.63
2023-05-17T11:36:22.184Z,2.55
2023-05-17T11:38:55.228Z,2.75
2023-05-17T11:41:31.043Z,2.60
2023-05-17T11:43:59.214Z,2.50
2023-05-17T11:46:26.477Z,2.72
2023-05-17T11:48:54.517Z,2.40
2023-05-17T11:51:25.020Z,2.65
2023-05-17T11:53:57.410Z,2.65
2023-05-17T11:56:39.557Z,2.55
2023-05-17T11:59:11.014Z,2.50
2023-05-17T12:01:49.805Z,2.92
2023-05-17T12:04:25.962Z,2.80
2023-05-17T12:06:58.360Z,2.83
2023-05-17T12:09:28.051Z,2.33
2023-05-17T12:11:57.297Z,2.42
2023-05-17T12:14:24.886Z,2.40
2023-05-17T12:16:57.987Z,2.70
2023-05-17T12:19:27.325Z,3.00
2023-05-17T12:22:17.876Z,2.50
2023-05-17T12:24:46.764Z,2.47
2023-05-17T12:27:29.530Z,2.70
2023-05-17T12:30:17.210Z,2.38
2023-05-17T12:32:53.076Z,2.20
2023-05-17T12:35:20.721Z,2.20
2023-05-17T12:37:50.468Z,2.35
2023-05-17T12:40:27.670Z,2.42
2023-05-17T12:43:04.623Z,2.10
2023-05-17T12:45:32.208Z,2.50
2023-05-17T12:48:01.654Z,2.28
2023-05-17T12:50:32.967Z,2.47
2023-05-17T12:53:07.514Z,2.15
2023-05-17T12:55:37.480Z,2.25
2023-05-17T12:58:10.140Z,1.88
2023-05-17T13:00:37.462Z,2.15
2023-05-17T13:03:10.642Z,2.50
2023-05-17T13:05:39.899Z,2.70
2023-05-17T13:08:22.620Z,2.38
2023-05-17T13:10:52.483Z,2.30
2023-05-17T13:13:20.869Z,2.60
2023-05-17T13:15:48.808Z,2.88
2023-05-17T13:18:20.623Z,2.80
2023-05-17T13:20:48.163Z,2.37
2023-05-17T13:23:16.147Z,2.75
2023-05-17T13:25:45.551Z,2.78
2023-05-17T13:28:13.086Z,2.95
2023-05-17T13:30:40.367Z,2.30
2023-05-17T13:33:07.646Z,2.97
2023-05-17T13:35:35.130Z,2.90
2023-05-17T13:38:02.486Z,2.90
2023-05-17T13:40:32.206Z,2.70
2023-05-17T13:43:09.971Z,2.80
2023-05-17T13:45:39.653Z,2.60
2023-05-17T13:48:09.241Z,2.50
2023-05-17T13:50:39.319Z,2.60
2023-05-17T13:53:06.730Z,2.58
2023-05-17T13:55:34.476Z,2.67
2023-05-17T13:58:01.719Z,2.40
2023-05-17T14:00:29.074Z,2.70
2023-05-17T14:02:56.625Z,2.83
2023-05-17T14:05:24.889Z,2.72
2023-05-17T14:07:52.629Z,2.47
2023-05-17T14:10:19.919Z,2.85
2023-05-17T14:12:47.868Z,2.40
2023-05-17T14:15:15.304Z,2.40
2023-05-17T14:17:45.009Z,2.28
2023-05-17T14:20:14.045Z,2.38
2023-05-17T14:22:41.809Z,2.15
2023-05-17T14:25:11.404Z,2.90
2023-05-17T14:27:38.641Z,2.22
2023-05-17T14:30:06.646Z,2.55
2023-05-17T14:32:35.487Z,3.00
2023-05-17T14:35:03.290Z,3.63
2023-05-17T14:37:41.129Z,3.40
2023-05-17T14:40:10.047Z,2.55
2023-05-17T14:42:41.023Z,2.92
2023-05-17T14:45:10.280Z,3.35
2023-05-17T14:47:43.308Z,2.70
2023-05-17T14:50:13.907Z,3.03
2023-05-17T14:52:44.280Z,3.00
2023-05-17T14:55:12.155Z,2.33
2023-05-17T14:57:40.321Z,2.45
2023-05-17T15:00:10.574Z,2.67
2023-05-17T15:02:38.692Z,2.40
2023-05-17T15:05:10.834Z,2.92
2023-05-17T15:07:38.551Z,2.75
2023-05-17T15:10:06.576Z,2.50
2023-05-17T15:12:39.515Z,2.60
2023-05-17T15:15:20.022Z,2.58
2023-05-17T15:17:49.795Z,2.50
2023-05-17T15:20:23.668Z,2.45
2023-05-17T15:22:51.008Z,2.72
2023-05-17T15:25:18.527Z,2.50
2023-05-17T15:27:46.811Z,2.30
2023-05-17T15:30:16.836Z,2.40
2023-05-17T15:32:51.372Z,2.70
2023-05-17T15:35:38.571Z,2.42
2023-05-17T15:38:57.470Z,2.45
2023-05-17T15:41:08.373Z,2.00
2023-05-17T15:43:41.038Z,2.75
2023-05-17T15:46:08.471Z,2.28
2023-05-17T15:48:36.648Z,2.30
2023-05-17T15:51:04.805Z,2.30
2023-05-17T15:53:34.871Z,2.55
2023-05-17T15:56:02.527Z,2.20
2023-05-17T15:58:33.257Z,2.17
2023-05-17T16:01:05.180Z,2.33
2023-05-17T16:03:35.841Z,2.42
2023-05-17T16:06:07.752Z,2.22
2023-05-17T16:08:38.096Z,2.20
2023-05-17T16:11:06.714Z,2.10
2023-05-17T16:13:33.932Z,2.33
2023-05-17T16:16:04.383Z,2.20
2023-05-17T16:18:41.688Z,2.60
2023-05-17T16:21:09.321Z,2.35
2023-05-17T16:23:36.664Z,2.40
2023-05-17T16:26:03.982Z,2.92
2023-05-17T16:28:34.238Z,2.70
2023-05-17T16:31:03.437Z,2.65
2023-05-17T16:33:30.972Z,2.72
2023-05-17T16:36:30.154Z,2.80
2023-05-17T16:39:10.237Z,3.03
2023-05-17T16:41:38.654Z,2.67
2023-05-17T16:44:05.870Z,2.80
2023-05-17T16:49:15.414Z,2.75
2023-05-17T16:51:42.879Z,2.80
2023-05-17T16:54:10.162Z,2.60
2023-05-17T16:56:37.386Z,2.67
2023-05-17T16:59:04.692Z,3.15
2023-05-17T17:01:34.206Z,3.38
2023-05-17T17:04:01.853Z,2.58
2023-05-17T17:06:31.598Z,2.72
2023-05-17T17:08:58.851Z,3.20
2023-05-17T17:11:26.301Z,3.28
2023-05-17T17:13:57.880Z,3.00
2023-05-17T17:16:25.345Z,3.17
2023-05-17T17:18:55.480Z,3.10
2023-05-17T17:21:23.097Z,2.90
2023-05-17T17:23:52.479Z,3.10
2023-05-17T17:26:19.820Z,3.33
2023-05-17T17:28:47.152Z,2.75
2023-05-17T17:31:14.561Z,3.30
2023-05-17T17:33:42.108Z,2.92
2023-05-17T17:36:11.306Z,2.97
2023-05-17T17:38:38.561Z,3.20
2023-05-17T17:41:06.487Z,3.28
2023-05-17T17:43:33.890Z,2.53
2023-05-17T17:46:01.653Z,3.40
2023-05-17T17:48:42.913Z,3.28
2023-05-17T17:51:10.467Z,2.60
2023-05-17T17:53:41.574Z,2.88
2023-05-17T17:56:08.909Z,2.97
2023-05-17T17:58:36.831Z,2.80
2023-05-17T18:01:09.173Z,2.90
2023-05-17T18:03:41.922Z,2.65
2023-05-17T18:06:11.744Z,2.78
2023-05-17T18:08:38.977Z,3.03
2023-05-17T18:11:06.347Z,2.88
2023-05-17T18:13:33.616Z,2.88
2023-05-17T18:16:00.996Z,2.47
2023-05-17T18:18:30.169Z,2.63
2023-05-17T18:20:58.312Z,2.47
2023-05-17T18:23:35.220Z,2.53
2023-05-17T18:26:03.624Z,2.40
2023-05-17T18:28:41.860Z,2.50
2023-05-17T18:31:14.930Z,2.63
2023-05-17T18:33:42.207Z,2.45
2023-05-17T18:36:09.614Z,3.03
2023-05-17T18:38:42.119Z,2.85
2023-05-17T18:41:09.498Z,2.55
2023-05-17T18:43:46.439Z,2.40
2023-05-17T18:46:16.133Z,2.17
2023-05-17T18:48:44.064Z,2.53
2023-05-17T18:51:19.523Z,2.60
2023-05-17T18:53:53.941Z,2.78
2023-05-17T18:56:25.919Z,2.53
2023-05-17T18:58:57.486Z,2.42
2023-05-17T19:01:25.402Z,2.80
2023-05-17T19:03:56.601Z,2.70
2023-05-17T19:06:25.120Z,2.13
2023-05-17T19:08:54.636Z,2.83
2023-05-17T19:11:22.652Z,2.40
2023-05-17T19:13:50.029Z,2.30
2023-05-17T19:16:17.448Z,2.58
2023-05-17T19:18:44.773Z,2.55
2023-05-17T19:21:12.649Z,2.70
2023-05-17T19:23:39.918Z,2.53
2023-05-17T19:26:07.920Z,2.45
2023-05-17T19:28:42.527Z,2.70
2023-05-17T19:31:12.598Z,2.58
2023-05-17T19:33:40.309Z,2.58
2023-05-17T19:36:08.114Z,2.40
2023-05-17T19:38:36.984Z,3.22
2023-05-17T19:41:09.010Z,2.30
2023-05-17T19:43:38.817Z,2.67
2023-05-17T19:46:10.496Z,2.60
2023-05-17T19:48:38.623Z,2.80
2023-05-17T19:51:06.397Z,2.83
2023-05-17T19:53:51.013Z,3.03
2023-05-17T19:56:23.412Z,3.28
2023-05-17T19:58:54.309Z,3.35
2023-05-17T20:01:21.813Z,2.67
2023-05-17T20:03:49.370Z,3.15
2023-05-17T20:06:16.710Z,2.75
2023-05-17T20:08:45.252Z,3.00
2023-05-17T20:11:12.989Z,3.55
2023-05-17T20:13:40.580Z,3.58
2023-05-17T20:16:12.597Z,3.20
2023-05-17T20:18:43.860Z,3.20
2023-05-17T20:21:18.166Z,3.35
2023-05-17T20:23:46.433Z,4.28
2023-05-17T20:26:17.162Z,3.17
2023-05-17T20:28:45.201Z,3.33
2023-05-17T20:31:12.638Z,3.45
2023-05-17T20:33:44.190Z,3.22
2023-05-17T20:36:14.106Z,3.78
2023-05-17T20:38:42.517Z,3.78
2023-05-17T20:41:11.037Z,3.58
2023-05-17T20:43:38.296Z,3.28
2023-05-17T20:46:09.821Z,3.50
2023-05-17T20:48:38.863Z,3.70
2023-05-17T20:51:06.322Z,3.28
2023-05-17T20:53:36.429Z,3.53
2023-05-17T20:56:03.749Z,3.42
2023-05-17T20:58:33.713Z,3.50
2023-05-17T21:01:01.309Z,3.75
2023-05-17T21:03:35.016Z,3.47
2023-05-17T21:06:02.572Z,3.42
2023-05-17T21:08:29.851Z,3.80
2023-05-17T21:10:57.276Z,3.38
2023-05-17T21:13:27.867Z,3.75
2023-05-17T21:15:55.855Z,3.90
2023-05-17T21:18:23.803Z,3.33
2023-05-17T21:20:55.062Z,3.50
2023-05-17T21:23:24.742Z,3.67
2023-05-17T21:25:52.003Z,3.58
2023-05-17T21:28:19.334Z,3.38
2023-05-17T21:30:46.624Z,3.38
2023-05-17T21:33:14.026Z,3.50
2023-05-17T21:35:43.517Z,3.35
2023-05-17T21:38:10.836Z,3.38
2023-05-17T21:40:41.438Z,3.65
2023-05-17T21:43:09.922Z,3.13
2023-05-17T21:45:41.714Z,3.85
2023-05-17T21:48:11.283Z,3.72
2023-05-17T21:50:38.548Z,3.55
2023-05-17T21:53:05.878Z,3.53
2023-05-17T21:55:46.226Z,3.15
2023-05-17T21:58:23.180Z,3.50
2023-05-17T22:00:50.506Z,3.40
2023-05-17T22:03:18.069Z,3.58
2023-05-17T22:05:45.571Z,3.50
2023-05-17T22:08:12.953Z,3.50
2023-05-17T22:10:40.478Z,3.35
2023-05-17T22:13:12.481Z,3.72
2023-05-17T22:15:41.409Z,3.63
2023-05-17T22:18:09.231Z,3.85
2023-05-17T22:20:39.021Z,3.08
2023-05-17T22:23:06.530Z,3.55
2023-05-17T22:25:33.883Z,3.42
2023-05-17T22:28:01.080Z,3.40
2023-05-17T22:30:28.350Z,3.20
2023-05-17T22:32:58.149Z,3.60
2023-05-17T22:35:25.587Z,3.67
2023-05-17T22:37:53.455Z,3.70
2023-05-17T22:40:23.639Z,3.30
2023-05-17T22:42:51.926Z,3.28
2023-05-17T22:45:19.361Z,3.03
2023-05-17T22:47:47.661Z,3.42
2023-05-17T22:50:18.474Z,3.20
2023-05-17T22:52:46.471Z,3.35
2023-05-17T22:55:13.980Z,3.15
2023-05-17T22:57:41.458Z,3.55
2023-05-17T23:00:11.246Z,3.30
2023-05-17T23:02:38.714Z,3.00
2023-05-17T23:05:06.382Z,3.00
2023-05-17T23:07:38.088Z,3.50
2023-05-17T23:10:06.859Z,3.22
2023-05-17T23:12:36.844Z,3.40
2023-05-17T23:15:05.130Z,3.40
2023-05-17T23:17:33.190Z,3.40
2023-05-17T23:20:09.729Z,3.28
2023-05-17T23:22:39.841Z,3.38
2023-05-17T23:25:07.512Z,3.95
2023-05-17T23:27:38.071Z,3.30
2023-05-17T23:30:06.643Z,3.50
2023-05-17T23:32:34.211Z,3.85
2023-05-17T23:35:05.180Z,3.40
2023-05-17T23:37:36.709Z,3.38
2023-05-17T23:40:09.434Z,3.33
2023-05-17T23:42:37.330Z,3.00
2023-05-17T23:45:05.052Z,3.42
2023-05-17T23:47:33.614Z,3.25
2023-05-17T23:50:03.024Z,3.13
2023-05-17T23:52:32.881Z,3.50
2023-05-17T23:55:03.244Z,3.15
2023-05-17T23:57:30.881Z,3.60
2023-05-17T23:59:58.503Z,3.53
